sensor_id;sensor_type;location;lat;lon;timestamp;P1;durP1;ratioP1;P2;durP2;ratioP2
9888;SDS011;4983;42.112;24.738;2023-02-12T00:01:14;18.93;;;10.37;;
9888;SDS011;4983;42.112;24.738;2023-02-12T00:03:41;17.00;;;10.60;;
9888;SDS011;4983;42.112;24.738;2023-02-12T00:06:08;15.97;;;10.00;;
9888;SDS011;4983;42.112;24.738;2023-02-12T00:08:36;16.07;;;9.73;;
9888;SDS011;4983;42.112;24.738;2023-02-12T00:11:08;15.23;;;9.83;;
9888;SDS011;4983;42.112;24.738;2023-02-12T00:13:37;16.07;;;10.33;;
9888;SDS011;4983;42.112;24.738;2023-02-12T00:16:05;15.50;;;10.03;;
9888;SDS011;4983;42.112;24.738;2023-02-12T00:18:32;16.77;;;9.83;;
9888;SDS011;4983;42.112;24.738;2023-02-12T00:20:59;10.83;;;8.50;;
9888;SDS011;4983;42.112;24.738;2023-02-12T00:23:26;11.17;;;7.87;;
9888;SDS011;4983;42.112;24.738;2023-02-12T00:25:52;12.03;;;8.33;;
9888;SDS011;4983;42.112;24.738;2023-02-12T00:28:19;10.60;;;7.70;;
9888;SDS011;4983;42.112;24.738;2023-02-12T00:30:47;9.10;;;6.93;;
9888;SDS011;4983;42.112;24.738;2023-02-12T00:33:14;25.27;;;11.70;;
9888;SDS011;4983;42.112;24.738;2023-02-12T00:35:41;8.77;;;6.60;;
9888;SDS011;4983;42.112;24.738;2023-02-12T00:38:07;8.07;;;6.30;;
9888;SDS011;4983;42.112;24.738;2023-02-12T00:40:34;10.23;;;7.63;;
9888;SDS011;4983;42.112;24.738;2023-02-12T00:43:00;11.40;;;8.60;;
9888;SDS011;4983;42.112;24.738;2023-02-12T00:45:27;7.90;;;6.07;;
9888;SDS011;4983;42.112;24.738;2023-02-12T00:47:55;8.33;;;6.37;;
9888;SDS011;4983;42.112;24.738;2023-02-12T00:50:22;8.73;;;6.20;;
9888;SDS011;4983;42.112;24.738;2023-02-12T00:52:49;8.80;;;6.30;;
9888;SDS011;4983;42.112;24.738;2023-02-12T00:55:16;9.17;;;6.87;;
9888;SDS011;4983;42.112;24.738;2023-02-12T00:57:43;7.57;;;6.03;;
9888;SDS011;4983;42.112;24.738;2023-02-12T01:00:10;9.27;;;6.60;;
9888;SDS011;4983;42.112;24.738;2023-02-12T01:02:37;29.97;;;8.40;;
9888;SDS011;4983;42.112;24.738;2023-02-12T01:05:05;9.77;;;6.63;;
9888;SDS011;4983;42.112;24.738;2023-02-12T01:07:32;9.77;;;6.40;;
9888;SDS011;4983;42.112;24.738;2023-02-12T01:09:58;9.40;;;6.40;;
9888;SDS011;4983;42.112;24.738;2023-02-12T01:12:25;8.43;;;6.40;;
9888;SDS011;4983;42.112;24.738;2023-02-12T01:14:52;7.40;;;6.07;;
9888;SDS011;4983;42.112;24.738;2023-02-12T01:17:18;8.43;;;6.10;;
9888;SDS011;4983;42.112;24.738;2023-02-12T01:19:45;7.33;;;6.00;;
9888;SDS011;4983;42.112;24.738;2023-02-12T01:22:13;7.90;;;6.30;;
9888;SDS011;4983;42.112;24.738;2023-02-12T01:24:40;10.93;;;6.23;;
9888;SDS011;4983;42.112;24.738;2023-02-12T01:27:06;7.37;;;5.63;;
9888;SDS011;4983;42.112;24.738;2023-02-12T01:29:33;10.60;;;5.90;;
9888;SDS011;4983;42.112;24.738;2023-02-12T01:32:01;8.07;;;5.83;;
9888;SDS011;4983;42.112;24.738;2023-02-12T01:34:27;11.17;;;5.97;;
9888;SDS011;4983;42.112;24.738;2023-02-12T01:36:54;14.43;;;6.30;;
9888;SDS011;4983;42.112;24.738;2023-02-12T01:39:22;10.13;;;5.50;;
9888;SDS011;4983;42.112;24.738;2023-02-12T01:41:49;7.50;;;5.50;;
9888;SDS011;4983;42.112;24.738;2023-02-12T01:44:16;6.93;;;5.17;;
9888;SDS011;4983;42.112;24.738;2023-02-12T01:46:44;7.43;;;5.53;;
9888;SDS011;4983;42.112;24.738;2023-02-12T01:49:11;7.70;;;5.70;;
9888;SDS011;4983;42.112;24.738;2023-02-12T01:51:39;7.87;;;5.30;;
9888;SDS011;4983;42.112;24.738;2023-02-12T01:54:07;5.60;;;4.50;;
9888;SDS011;4983;42.112;24.738;2023-02-12T01:56:37;5.70;;;4.80;;
9888;SDS011;4983;42.112;24.738;2023-02-12T01:59:04;7.03;;;4.70;;
9888;SDS011;4983;42.112;24.738;2023-02-12T02:01:31;7.80;;;5.37;;
9888;SDS011;4983;42.112;24.738;2023-02-12T02:03:58;5.93;;;4.53;;
9888;SDS011;4983;42.112;24.738;2023-02-12T02:06:26;4.53;;;4.03;;
9888;SDS011;4983;42.112;24.738;2023-02-12T02:08:55;5.93;;;4.10;;
9888;SDS011;4983;42.112;24.738;2023-02-12T02:11:22;5.70;;;3.97;;
9888;SDS011;4983;42.112;24.738;2023-02-12T02:14:08;7.03;;;4.40;;
9888;SDS011;4983;42.112;24.738;2023-02-12T02:16:54;5.90;;;4.53;;
9888;SDS011;4983;42.112;24.738;2023-02-12T02:19:23;6.90;;;4.50;;
9888;SDS011;4983;42.112;24.738;2023-02-12T02:22:04;8.53;;;5.37;;
9888;SDS011;4983;42.112;24.738;2023-02-12T02:24:57;6.93;;;4.47;;
9888;SDS011;4983;42.112;24.738;2023-02-12T02:27:32;6.60;;;4.93;;
9888;SDS011;4983;42.112;24.738;2023-02-12T02:30:21;7.17;;;5.00;;
9888;SDS011;4983;42.112;24.738;2023-02-12T02:32:49;8.60;;;5.23;;
9888;SDS011;4983;42.112;24.738;2023-02-12T02:35:24;6.93;;;5.10;;
9888;SDS011;4983;42.112;24.738;2023-02-12T02:38:06;8.00;;;4.57;;
9888;SDS011;4983;42.112;24.738;2023-02-12T02:40:38;8.40;;;5.77;;
9888;SDS011;4983;42.112;24.738;2023-02-12T02:43:06;6.57;;;4.97;;
9888;SDS011;4983;42.112;24.738;2023-02-12T02:45:36;12.57;;;7.00;;
9888;SDS011;4983;42.112;24.738;2023-02-12T02:48:05;9.33;;;6.83;;
9888;SDS011;4983;42.112;24.738;2023-02-12T02:50:34;10.50;;;7.70;;
9888;SDS011;4983;42.112;24.738;2023-02-12T02:53:05;11.47;;;6.50;;
9888;SDS011;4983;42.112;24.738;2023-02-12T02:55:34;9.43;;;6.40;;
9888;SDS011;4983;42.112;24.738;2023-02-12T02:58:06;8.90;;;6.50;;
9888;SDS011;4983;42.112;24.738;2023-02-12T03:00:36;8.60;;;6.73;;
9888;SDS011;4983;42.112;24.738;2023-02-12T03:03:06;9.23;;;6.77;;
9888;SDS011;4983;42.112;24.738;2023-02-12T03:05:36;12.23;;;6.93;;
9888;SDS011;4983;42.112;24.738;2023-02-12T03:08:06;9.30;;;6.63;;
9888;SDS011;4983;42.112;24.738;2023-02-12T03:10:35;8.20;;;5.93;;
9888;SDS011;4983;42.112;24.738;2023-02-12T03:13:05;10.40;;;6.60;;
9888;SDS011;4983;42.112;24.738;2023-02-12T03:15:33;9.30;;;6.40;;
9888;SDS011;4983;42.112;24.738;2023-02-12T03:18:04;11.03;;;6.10;;
9888;SDS011;4983;42.112;24.738;2023-02-12T03:20:34;9.27;;;6.40;;
9888;SDS011;4983;42.112;24.738;2023-02-12T03:23:03;9.20;;;6.40;;
9888;SDS011;4983;42.112;24.738;2023-02-12T03:25:32;9.37;;;6.40;;
9888;SDS011;4983;42.112;24.738;2023-02-12T03:28:00;8.30;;;6.13;;
9888;SDS011;4983;42.112;24.738;2023-02-12T03:30:29;12.53;;;6.77;;
9888;SDS011;4983;42.112;24.738;2023-02-12T03:33:01;8.70;;;6.23;;
9888;SDS011;4983;42.112;24.738;2023-02-12T03:35:30;7.80;;;5.83;;
9888;SDS011;4983;42.112;24.738;2023-02-12T03:38:00;8.57;;;6.03;;
9888;SDS011;4983;42.112;24.738;2023-02-12T03:40:29;11.97;;;6.00;;
9888;SDS011;4983;42.112;24.738;2023-02-12T03:43:00;11.23;;;6.07;;
9888;SDS011;4983;42.112;24.738;2023-02-12T03:45:33;8.27;;;6.23;;
9888;SDS011;4983;42.112;24.738;2023-02-12T03:48:05;10.20;;;6.57;;
9888;SDS011;4983;42.112;24.738;2023-02-12T03:50:35;10.70;;;6.00;;
9888;SDS011;4983;42.112;24.738;2023-02-12T03:53:06;8.00;;;5.53;;
9888;SDS011;4983;42.112;24.738;2023-02-12T03:55:34;7.43;;;5.60;;
9888;SDS011;4983;42.112;24.738;2023-02-12T03:58:03;9.10;;;6.37;;
9888;SDS011;4983;42.112;24.738;2023-02-12T04:00:32;9.07;;;5.90;;
9888;SDS011;4983;42.112;24.738;2023-02-12T04:02:58;7.57;;;6.00;;
9888;SDS011;4983;42.112;24.738;2023-02-12T04:05:26;8.90;;;6.20;;
9888;SDS011;4983;42.112;24.738;2023-02-12T04:07:53;6.87;;;5.67;;
9888;SDS011;4983;42.112;24.738;2023-02-12T04:10:23;8.47;;;6.03;;
9888;SDS011;4983;42.112;24.738;2023-02-12T04:12:51;9.53;;;6.30;;
9888;SDS011;4983;42.112;24.738;2023-02-12T04:15:24;9.97;;;6.80;;
9888;SDS011;4983;42.112;24.738;2023-02-12T04:17:55;8.87;;;6.17;;
9888;SDS011;4983;42.112;24.738;2023-02-12T04:20:25;7.53;;;6.00;;
9888;SDS011;4983;42.112;24.738;2023-02-12T04:22:53;11.10;;;5.50;;
9888;SDS011;4983;42.112;24.738;2023-02-12T04:25:26;7.07;;;4.90;;
9888;SDS011;4983;42.112;24.738;2023-02-12T04:27:59;6.17;;;4.60;;
9888;SDS011;4983;42.112;24.738;2023-02-12T04:30:31;5.90;;;4.97;;
9888;SDS011;4983;42.112;24.738;2023-02-12T04:33:02;6.77;;;4.83;;
9888;SDS011;4983;42.112;24.738;2023-02-12T04:35:30;6.20;;;5.00;;
9888;SDS011;4983;42.112;24.738;2023-02-12T04:38:01;7.13;;;5.00;;
9888;SDS011;4983;42.112;24.738;2023-02-12T04:40:30;8.83;;;4.67;;
9888;SDS011;4983;42.112;24.738;2023-02-12T04:42:57;5.67;;;4.63;;
9888;SDS011;4983;42.112;24.738;2023-02-12T04:45:25;7.00;;;4.80;;
9888;SDS011;4983;42.112;24.738;2023-02-12T04:47:52;6.83;;;5.00;;
9888;SDS011;4983;42.112;24.738;2023-02-12T04:50:19;6.93;;;5.30;;
9888;SDS011;4983;42.112;24.738;2023-02-12T04:52:45;4.90;;;3.17;;
9888;SDS011;4983;42.112;24.738;2023-02-12T04:55:12;8.77;;;5.60;;
9888;SDS011;4983;42.112;24.738;2023-02-12T04:57:40;7.77;;;6.20;;
9888;SDS011;4983;42.112;24.738;2023-02-12T05:00:07;7.20;;;5.20;;
9888;SDS011;4983;42.112;24.738;2023-02-12T05:02:35;8.97;;;6.87;;
9888;SDS011;4983;42.112;24.738;2023-02-12T05:05:03;15.87;;;10.20;;
9888;SDS011;4983;42.112;24.738;2023-02-12T05:07:30;8.70;;;6.17;;
9888;SDS011;4983;42.112;24.738;2023-02-12T05:09:57;8.20;;;6.17;;
9888;SDS011;4983;42.112;24.738;2023-02-12T05:12:24;9.07;;;6.83;;
9888;SDS011;4983;42.112;24.738;2023-02-12T05:14:52;7.73;;;5.50;;
9888;SDS011;4983;42.112;24.738;2023-02-12T05:17:20;13.03;;;6.93;;
9888;SDS011;4983;42.112;24.738;2023-02-12T05:19:46;9.80;;;6.80;;
9888;SDS011;4983;42.112;24.738;2023-02-12T05:22:13;20.83;;;9.63;;
9888;SDS011;4983;42.112;24.738;2023-02-12T05:24:40;12.93;;;8.70;;
9888;SDS011;4983;42.112;24.738;2023-02-12T05:27:06;11.37;;;7.53;;
9888;SDS011;4983;42.112;24.738;2023-02-12T05:29:33;11.63;;;7.37;;
9888;SDS011;4983;42.112;24.738;2023-02-12T05:32:02;11.37;;;7.93;;
9888;SDS011;4983;42.112;24.738;2023-02-12T05:34:29;12.77;;;8.10;;
9888;SDS011;4983;42.112;24.738;2023-02-12T05:36:55;26.17;;;16.13;;
9888;SDS011;4983;42.112;24.738;2023-02-12T05:39:22;27.67;;;17.20;;
9888;SDS011;4983;42.112;24.738;2023-02-12T05:41:50;26.90;;;15.70;;
9888;SDS011;4983;42.112;24.738;2023-02-12T05:44:16;17.07;;;10.07;;
9888;SDS011;4983;42.112;24.738;2023-02-12T05:46:43;17.73;;;10.70;;
9888;SDS011;4983;42.112;24.738;2023-02-12T05:49:11;12.20;;;8.33;;
9888;SDS011;4983;42.112;24.738;2023-02-12T05:51:38;16.27;;;10.37;;
9888;SDS011;4983;42.112;24.738;2023-02-12T05:54:05;13.30;;;9.00;;
9888;SDS011;4983;42.112;24.738;2023-02-12T05:56:32;12.73;;;8.43;;
9888;SDS011;4983;42.112;24.738;2023-02-12T05:59:00;11.53;;;8.00;;
9888;SDS011;4983;42.112;24.738;2023-02-12T06:01:28;11.93;;;7.47;;
9888;SDS011;4983;42.112;24.738;2023-02-12T06:03:55;11.23;;;6.77;;
9888;SDS011;4983;42.112;24.738;2023-02-12T06:06:25;12.37;;;7.10;;
9888;SDS011;4983;42.112;24.738;2023-02-12T06:08:51;18.57;;;6.70;;
9888;SDS011;4983;42.112;24.738;2023-02-12T06:11:18;10.33;;;5.87;;
9888;SDS011;4983;42.112;24.738;2023-02-12T06:13:45;8.83;;;6.97;;
9888;SDS011;4983;42.112;24.738;2023-02-12T06:16:16;18.87;;;7.87;;
9888;SDS011;4983;42.112;24.738;2023-02-12T06:18:43;12.13;;;7.33;;
9888;SDS011;4983;42.112;24.738;2023-02-12T06:21:10;17.57;;;7.10;;
9888;SDS011;4983;42.112;24.738;2023-02-12T06:23:38;11.87;;;7.37;;
9888;SDS011;4983;42.112;24.738;2023-02-12T06:26:06;8.27;;;6.80;;
9888;SDS011;4983;42.112;24.738;2023-02-12T06:28:34;13.17;;;7.47;;
9888;SDS011;4983;42.112;24.738;2023-02-12T06:31:00;9.87;;;6.80;;
9888;SDS011;4983;42.112;24.738;2023-02-12T06:33:27;11.23;;;5.97;;
9888;SDS011;4983;42.112;24.738;2023-02-12T06:35:54;55.90;;;9.87;;
9888;SDS011;4983;42.112;24.738;2023-02-12T06:38:20;12.37;;;6.83;;
9888;SDS011;4983;42.112;24.738;2023-02-12T06:40:48;34.83;;;9.40;;
9888;SDS011;4983;42.112;24.738;2023-02-12T06:43:16;12.87;;;7.27;;
9888;SDS011;4983;42.112;24.738;2023-02-12T06:45:43;15.03;;;7.30;;
9888;SDS011;4983;42.112;24.738;2023-02-12T06:48:11;19.17;;;8.30;;
9888;SDS011;4983;42.112;24.738;2023-02-12T06:50:38;17.87;;;7.40;;
9888;SDS011;4983;42.112;24.738;2023-02-12T06:53:07;37.33;;;8.60;;
9888;SDS011;4983;42.112;24.738;2023-02-12T06:55:34;10.13;;;7.10;;
9888;SDS011;4983;42.112;24.738;2023-02-12T06:58:02;44.37;;;9.00;;
9888;SDS011;4983;42.112;24.738;2023-02-12T07:00:30;18.00;;;7.77;;
9888;SDS011;4983;42.112;24.738;2023-02-12T07:02:56;25.50;;;8.90;;
9888;SDS011;4983;42.112;24.738;2023-02-12T07:05:23;16.77;;;8.30;;
9888;SDS011;4983;42.112;24.738;2023-02-12T07:07:50;13.60;;;8.50;;
9888;SDS011;4983;42.112;24.738;2023-02-12T07:10:17;12.43;;;9.00;;
9888;SDS011;4983;42.112;24.738;2023-02-12T07:12:45;20.33;;;8.53;;
9888;SDS011;4983;42.112;24.738;2023-02-12T07:15:13;11.97;;;8.70;;
9888;SDS011;4983;42.112;24.738;2023-02-12T07:17:44;14.93;;;8.37;;
9888;SDS011;4983;42.112;24.738;2023-02-12T07:20:11;32.60;;;8.33;;
9888;SDS011;4983;42.112;24.738;2023-02-12T07:22:38;14.77;;;8.40;;
9888;SDS011;4983;42.112;24.738;2023-02-12T07:25:05;18.37;;;9.27;;
9888;SDS011;4983;42.112;24.738;2023-02-12T07:27:33;11.43;;;8.80;;
9888;SDS011;4983;42.112;24.738;2023-02-12T07:30:01;37.80;;;10.40;;
9888;SDS011;4983;42.112;24.738;2023-02-12T07:32:29;16.73;;;9.97;;
9888;SDS011;4983;42.112;24.738;2023-02-12T07:34:56;12.33;;;9.00;;
9888;SDS011;4983;42.112;24.738;2023-02-12T07:37:24;18.70;;;8.70;;
9888;SDS011;4983;42.112;24.738;2023-02-12T07:39:50;12.97;;;9.10;;
9888;SDS011;4983;42.112;24.738;2023-02-12T07:42:17;17.10;;;11.10;;
9888;SDS011;4983;42.112;24.738;2023-02-12T07:44:44;21.77;;;12.67;;
9888;SDS011;4983;42.112;24.738;2023-02-12T07:47:11;13.50;;;9.50;;
9888;SDS011;4983;42.112;24.738;2023-02-12T07:49:39;16.73;;;10.00;;
9888;SDS011;4983;42.112;24.738;2023-02-12T07:52:06;16.33;;;10.33;;
9888;SDS011;4983;42.112;24.738;2023-02-12T07:54:33;15.07;;;10.73;;
9888;SDS011;4983;42.112;24.738;2023-02-12T07:56:59;13.13;;;10.70;;
9888;SDS011;4983;42.112;24.738;2023-02-12T07:59:26;14.97;;;10.63;;
9888;SDS011;4983;42.112;24.738;2023-02-12T08:01:53;16.43;;;10.80;;
9888;SDS011;4983;42.112;24.738;2023-02-12T08:04:20;16.37;;;10.63;;
9888;SDS011;4983;42.112;24.738;2023-02-12T08:06:50;14.27;;;10.17;;
9888;SDS011;4983;42.112;24.738;2023-02-12T08:09:19;14.23;;;9.47;;
9888;SDS011;4983;42.112;24.738;2023-02-12T08:11:46;15.37;;;8.87;;
9888;SDS011;4983;42.112;24.738;2023-02-12T08:14:13;16.70;;;10.63;;
9888;SDS011;4983;42.112;24.738;2023-02-12T08:16:41;14.33;;;10.60;;
9888;SDS011;4983;42.112;24.738;2023-02-12T08:19:09;15.20;;;10.97;;
9888;SDS011;4983;42.112;24.738;2023-02-12T08:21:35;38.30;;;12.57;;
9888;SDS011;4983;42.112;24.738;2023-02-12T08:24:04;12.80;;;8.20;;
9888;SDS011;4983;42.112;24.738;2023-02-12T08:26:32;21.27;;;12.37;;
9888;SDS011;4983;42.112;24.738;2023-02-12T08:28:59;16.20;;;10.53;;
9888;SDS011;4983;42.112;24.738;2023-02-12T08:31:28;15.07;;;10.37;;
9888;SDS011;4983;42.112;24.738;2023-02-12T08:33:55;15.37;;;11.03;;
9888;SDS011;4983;42.112;24.738;2023-02-12T08:36:22;15.70;;;11.50;;
9888;SDS011;4983;42.112;24.738;2023-02-12T08:38:49;14.17;;;9.97;;
9888;SDS011;4983;42.112;24.738;2023-02-12T08:41:17;19.40;;;11.03;;
9888;SDS011;4983;42.112;24.738;2023-02-12T08:43:45;12.67;;;10.10;;
9888;SDS011;4983;42.112;24.738;2023-02-12T08:46:14;18.50;;;13.07;;
9888;SDS011;4983;42.112;24.738;2023-02-12T08:48:41;51.47;;;15.20;;
9888;SDS011;4983;42.112;24.738;2023-02-12T08:51:09;24.70;;;13.13;;
9888;SDS011;4983;42.112;24.738;2023-02-12T08:53:36;16.43;;;12.63;;
9888;SDS011;4983;42.112;24.738;2023-02-12T08:56:03;20.80;;;14.03;;
9888;SDS011;4983;42.112;24.738;2023-02-12T08:58:31;25.70;;;18.40;;
9888;SDS011;4983;42.112;24.738;2023-02-12T09:00:58;30.30;;;16.50;;
9888;SDS011;4983;42.112;24.738;2023-02-12T09:03:25;17.10;;;12.63;;
9888;SDS011;4983;42.112;24.738;2023-02-12T09:05:52;18.37;;;11.87;;
9888;SDS011;4983;42.112;24.738;2023-02-12T09:08:19;16.90;;;10.40;;
9888;SDS011;4983;42.112;24.738;2023-02-12T09:10:45;15.67;;;10.60;;
9888;SDS011;4983;42.112;24.738;2023-02-12T09:13:13;17.47;;;11.93;;
9888;SDS011;4983;42.112;24.738;2023-02-12T09:15:41;21.27;;;13.90;;
9888;SDS011;4983;42.112;24.738;2023-02-12T09:18:08;17.37;;;12.03;;
9888;SDS011;4983;42.112;24.738;2023-02-12T09:20:36;14.40;;;11.40;;
9888;SDS011;4983;42.112;24.738;2023-02-12T09:23:03;22.00;;;12.73;;
9888;SDS011;4983;42.112;24.738;2023-02-12T09:25:30;19.30;;;11.03;;
9888;SDS011;4983;42.112;24.738;2023-02-12T09:27:58;19.40;;;14.07;;
9888;SDS011;4983;42.112;24.738;2023-02-12T09:30:25;16.90;;;12.70;;
9888;SDS011;4983;42.112;24.738;2023-02-12T09:32:53;17.30;;;12.67;;
9888;SDS011;4983;42.112;24.738;2023-02-12T09:35:19;16.47;;;11.93;;
9888;SDS011;4983;42.112;24.738;2023-02-12T09:37:46;17.13;;;11.00;;
9888;SDS011;4983;42.112;24.738;2023-02-12T09:40:15;18.17;;;12.27;;
9888;SDS011;4983;42.112;24.738;2023-02-12T09:42:48;20.00;;;13.63;;
9888;SDS011;4983;42.112;24.738;2023-02-12T09:45:18;14.43;;;10.00;;
9888;SDS011;4983;42.112;24.738;2023-02-12T09:47:49;13.43;;;9.33;;
9888;SDS011;4983;42.112;24.738;2023-02-12T09:50:26;29.10;;;11.10;;
9888;SDS011;4983;42.112;24.738;2023-02-12T09:52:56;24.90;;;11.67;;
9888;SDS011;4983;42.112;24.738;2023-02-12T09:55:24;13.90;;;10.37;;
9888;SDS011;4983;42.112;24.738;2023-02-12T09:57:53;16.10;;;9.03;;
9888;SDS011;4983;42.112;24.738;2023-02-12T10:00:21;16.57;;;9.30;;
9888;SDS011;4983;42.112;24.738;2023-02-12T10:02:51;14.20;;;9.60;;
9888;SDS011;4983;42.112;24.738;2023-02-12T10:05:19;18.23;;;10.83;;
9888;SDS011;4983;42.112;24.738;2023-02-12T10:07:55;20.47;;;13.97;;
9888;SDS011;4983;42.112;24.738;2023-02-12T10:10:27;21.67;;;11.27;;
9888;SDS011;4983;42.112;24.738;2023-02-12T10:13:01;19.70;;;11.50;;
9888;SDS011;4983;42.112;24.738;2023-02-12T10:15:32;22.47;;;10.70;;
9888;SDS011;4983;42.112;24.738;2023-02-12T10:18:04;17.43;;;10.43;;
9888;SDS011;4983;42.112;24.738;2023-02-12T10:20:44;11.53;;;9.07;;
9888;SDS011;4983;42.112;24.738;2023-02-12T10:23:24;14.03;;;10.47;;
9888;SDS011;4983;42.112;24.738;2023-02-12T10:25:53;11.87;;;8.57;;
9888;SDS011;4983;42.112;24.738;2023-02-12T10:28:22;16.77;;;10.90;;
9888;SDS011;4983;42.112;24.738;2023-02-12T10:30:51;11.20;;;8.80;;
9888;SDS011;4983;42.112;24.738;2023-02-12T10:33:22;9.43;;;7.73;;
9888;SDS011;4983;42.112;24.738;2023-02-12T10:35:53;18.00;;;8.93;;
9888;SDS011;4983;42.112;24.738;2023-02-12T10:38:21;12.43;;;8.47;;
9888;SDS011;4983;42.112;24.738;2023-02-12T10:40:51;14.50;;;8.70;;
9888;SDS011;4983;42.112;24.738;2023-02-12T10:43:21;20.07;;;8.60;;
9888;SDS011;4983;42.112;24.738;2023-02-12T10:45:48;10.67;;;7.90;;
9888;SDS011;4983;42.112;24.738;2023-02-12T10:48:17;9.87;;;8.00;;
9888;SDS011;4983;42.112;24.738;2023-02-12T10:50:50;12.47;;;8.50;;
9888;SDS011;4983;42.112;24.738;2023-02-12T10:53:20;10.73;;;7.83;;
9888;SDS011;4983;42.112;24.738;2023-02-12T10:55:48;11.47;;;7.53;;
9888;SDS011;4983;42.112;24.738;2023-02-12T10:58:18;11.07;;;8.13;;
9888;SDS011;4983;42.112;24.738;2023-02-12T11:00:45;15.67;;;8.23;;
9888;SDS011;4983;42.112;24.738;2023-02-12T11:03:18;11.47;;;8.50;;
9888;SDS011;4983;42.112;24.738;2023-02-12T11:05:46;11.10;;;8.70;;
9888;SDS011;4983;42.112;24.738;2023-02-12T11:08:25;12.40;;;7.90;;
9888;SDS011;4983;42.112;24.738;2023-02-12T11:10:53;15.43;;;8.77;;
9888;SDS011;4983;42.112;24.738;2023-02-12T11:13:26;12.17;;;8.43;;
9888;SDS011;4983;42.112;24.738;2023-02-12T11:15:54;9.97;;;7.27;;
9888;SDS011;4983;42.112;24.738;2023-02-12T11:18:22;11.57;;;9.07;;
9888;SDS011;4983;42.112;24.738;2023-02-12T11:20:52;11.63;;;8.50;;
9888;SDS011;4983;42.112;24.738;2023-02-12T11:23:23;15.47;;;9.63;;
9888;SDS011;4983;42.112;24.738;2023-02-12T11:25:56;11.30;;;8.43;;
9888;SDS011;4983;42.112;24.738;2023-02-12T11:28:23;14.03;;;8.97;;
9888;SDS011;4983;42.112;24.738;2023-02-12T11:30:52;10.57;;;7.20;;
9888;SDS011;4983;42.112;24.738;2023-02-12T11:33:24;14.17;;;8.97;;
9888;SDS011;4983;42.112;24.738;2023-02-12T11:35:52;13.13;;;8.53;;
9888;SDS011;4983;42.112;24.738;2023-02-12T11:38:21;10.63;;;8.10;;
9888;SDS011;4983;42.112;24.738;2023-02-12T11:40:50;13.43;;;9.07;;
9888;SDS011;4983;42.112;24.738;2023-02-12T11:43:19;11.90;;;8.97;;
9888;SDS011;4983;42.112;24.738;2023-02-12T11:45:46;26.00;;;11.80;;
9888;SDS011;4983;42.112;24.738;2023-02-12T11:48:17;19.93;;;12.30;;
9888;SDS011;4983;42.112;24.738;2023-02-12T11:50:45;12.77;;;9.27;;
9888;SDS011;4983;42.112;24.738;2023-02-12T11:53:23;12.37;;;10.57;;
9888;SDS011;4983;42.112;24.738;2023-02-12T11:55:52;10.63;;;8.90;;
9888;SDS011;4983;42.112;24.738;2023-02-12T11:58:21;13.90;;;9.77;;
9888;SDS011;4983;42.112;24.738;2023-02-12T12:00:49;16.97;;;9.40;;
9888;SDS011;4983;42.112;24.738;2023-02-12T12:03:22;12.40;;;9.93;;
9888;SDS011;4983;42.112;24.738;2023-02-12T12:05:50;20.07;;;11.30;;
9888;SDS011;4983;42.112;24.738;2023-02-12T12:08:20;12.50;;;10.37;;
9888;SDS011;4983;42.112;24.738;2023-02-12T12:10:50;10.87;;;9.13;;
9888;SDS011;4983;42.112;24.738;2023-02-12T12:13:21;13.83;;;10.47;;
9888;SDS011;4983;42.112;24.738;2023-02-12T12:15:50;12.13;;;9.80;;
9888;SDS011;4983;42.112;24.738;2023-02-12T12:18:39;12.53;;;10.30;;
9888;SDS011;4983;42.112;24.738;2023-02-12T12:21:27;31.10;;;11.17;;
9888;SDS011;4983;42.112;24.738;2023-02-12T12:23:57;18.53;;;10.43;;
9888;SDS011;4983;42.112;24.738;2023-02-12T12:26:25;12.63;;;9.10;;
9888;SDS011;4983;42.112;24.738;2023-02-12T12:28:54;15.03;;;9.90;;
9888;SDS011;4983;42.112;24.738;2023-02-12T12:31:24;15.03;;;9.17;;
9888;SDS011;4983;42.112;24.738;2023-02-12T12:33:56;14.90;;;9.90;;
9888;SDS011;4983;42.112;24.738;2023-02-12T12:39:21;16.27;;;11.00;;
9888;SDS011;4983;42.112;24.738;2023-02-12T12:41:56;34.60;;;11.30;;
9888;SDS011;4983;42.112;24.738;2023-02-12T12:44:29;16.43;;;9.70;;
9888;SDS011;4983;42.112;24.738;2023-02-12T12:47:01;19.70;;;9.17;;
9888;SDS011;4983;42.112;24.738;2023-02-12T12:52:28;21.47;;;11.17;;
9888;SDS011;4983;42.112;24.738;2023-02-12T12:55:06;12.27;;;9.93;;
9888;SDS011;4983;42.112;24.738;2023-02-12T12:57:38;15.37;;;10.00;;
9888;SDS011;4983;42.112;24.738;2023-02-12T13:00:15;13.17;;;10.20;;
9888;SDS011;4983;42.112;24.738;2023-02-12T13:03:04;16.40;;;10.27;;
9888;SDS011;4983;42.112;24.738;2023-02-12T13:08:27;20.50;;;11.87;;
9888;SDS011;4983;42.112;24.738;2023-02-12T13:10:59;15.13;;;10.00;;
9888;SDS011;4983;42.112;24.738;2023-02-12T13:13:30;15.53;;;10.40;;
9888;SDS011;4983;42.112;24.738;2023-02-12T13:16:00;10.73;;;8.93;;
9888;SDS011;4983;42.112;24.738;2023-02-12T13:18:33;13.63;;;9.43;;
9888;SDS011;4983;42.112;24.738;2023-02-12T13:21:04;14.53;;;9.37;;
9888;SDS011;4983;42.112;24.738;2023-02-12T13:23:36;15.40;;;11.43;;
9888;SDS011;4983;42.112;24.738;2023-02-12T13:26:06;11.90;;;9.70;;
9888;SDS011;4983;42.112;24.738;2023-02-12T13:28:35;14.93;;;9.40;;
9888;SDS011;4983;42.112;24.738;2023-02-12T13:31:05;12.30;;;9.40;;
9888;SDS011;4983;42.112;24.738;2023-02-12T13:33:35;17.37;;;9.60;;
9888;SDS011;4983;42.112;24.738;2023-02-12T13:36:06;11.53;;;8.90;;
9888;SDS011;4983;42.112;24.738;2023-02-12T13:38:37;16.93;;;8.90;;
9888;SDS011;4983;42.112;24.738;2023-02-12T13:41:06;20.03;;;11.47;;
9888;SDS011;4983;42.112;24.738;2023-02-12T13:43:43;14.83;;;10.63;;
9888;SDS011;4983;42.112;24.738;2023-02-12T13:46:13;16.57;;;11.63;;
9888;SDS011;4983;42.112;24.738;2023-02-12T13:48:49;15.53;;;10.37;;
9888;SDS011;4983;42.112;24.738;2023-02-12T13:51:20;15.40;;;10.27;;
9888;SDS011;4983;42.112;24.738;2023-02-12T13:53:56;10.57;;;9.00;;
9888;SDS011;4983;42.112;24.738;2023-02-12T13:56:32;15.73;;;10.13;;
9888;SDS011;4983;42.112;24.738;2023-02-12T13:58:59;14.03;;;9.77;;
9888;SDS011;4983;42.112;24.738;2023-02-12T14:01:37;30.47;;;12.57;;
9888;SDS011;4983;42.112;24.738;2023-02-12T14:06:57;13.60;;;10.60;;
9888;SDS011;4983;42.112;24.738;2023-02-12T14:09:28;21.90;;;11.67;;
9888;SDS011;4983;42.112;24.738;2023-02-12T14:12:01;46.80;;;14.87;;
9888;SDS011;4983;42.112;24.738;2023-02-12T14:14:30;16.47;;;11.53;;
9888;SDS011;4983;42.112;24.738;2023-02-12T14:19:53;15.30;;;11.30;;
9888;SDS011;4983;42.112;24.738;2023-02-12T14:25:37;16.43;;;12.60;;
9888;SDS011;4983;42.112;24.738;2023-02-12T14:28:05;17.00;;;13.90;;
9888;SDS011;4983;42.112;24.738;2023-02-12T14:30:33;17.13;;;14.50;;
9888;SDS011;4983;42.112;24.738;2023-02-12T14:35:44;20.27;;;15.83;;
9888;SDS011;4983;42.112;24.738;2023-02-12T14:43:51;17.63;;;14.63;;
9888;SDS011;4983;42.112;24.738;2023-02-12T14:46:42;17.77;;;15.33;;
9888;SDS011;4983;42.112;24.738;2023-02-12T14:49:15;19.80;;;15.60;;
9888;SDS011;4983;42.112;24.738;2023-02-12T14:51:45;19.73;;;15.00;;
9888;SDS011;4983;42.112;24.738;2023-02-12T14:54:13;19.67;;;15.47;;
9888;SDS011;4983;42.112;24.738;2023-02-12T14:56:43;19.60;;;16.33;;
9888;SDS011;4983;42.112;24.738;2023-02-12T14:59:13;29.03;;;18.23;;
9888;SDS011;4983;42.112;24.738;2023-02-12T15:01:42;27.27;;;17.83;;
9888;SDS011;4983;42.112;24.738;2023-02-12T15:04:11;22.60;;;17.90;;
9888;SDS011;4983;42.112;24.738;2023-02-12T15:06:42;22.17;;;17.37;;
9888;SDS011;4983;42.112;24.738;2023-02-12T15:09:14;22.83;;;18.57;;
9888;SDS011;4983;42.112;24.738;2023-02-12T15:11:46;21.70;;;17.27;;
9888;SDS011;4983;42.112;24.738;2023-02-12T15:14:18;26.80;;;19.50;;
9888;SDS011;4983;42.112;24.738;2023-02-12T15:16:48;38.07;;;20.73;;
9888;SDS011;4983;42.112;24.738;2023-02-12T15:19:25;44.17;;;22.93;;
9888;SDS011;4983;42.112;24.738;2023-02-12T15:21:56;43.10;;;25.90;;
9888;SDS011;4983;42.112;24.738;2023-02-12T15:24:25;51.60;;;30.50;;
9888;SDS011;4983;42.112;24.738;2023-02-12T15:26:57;39.73;;;26.53;;